Time;durP1;ratioP1;P1;durP2;ratioP2;P2;SDS_P1;SDS_P2;PMS_P1;PMS_P2;Temp;Humidity;BMP_temperature;BMP_pressure;BME280_temperature;BME280_humidity;BME280_pressure;Samples;Min_cycle;Max_cycle;Signal;HPM_P1;HPM_P2
2023/07/12 00:00:51;;;;;;;;;;;;;;;19.62;75.43;100407.31;5027857;28;20040;-80
2023/07/12 00:03:18;;;;;;;9.18;4.30;;;;;;;19.61;75.28;100392.16;4990138;28;19913;-80
2023/07/12 00:05:45;;;;;;;5.80;4.10;;;;;;;19.65;74.94;100389.56;5003984;28;20046;-80
2023/07/12 00:08:27;;;;;;;7.72;4.20;;;;;;;19.66;75.11;100396.59;4993086;28;20033;-79
2023/07/12 00:10:55;;;;;;;7.82;4.53;;;;;;;19.66;75.01;100394.66;4991400;28;20076;-78
2023/07/12 00:13:23;;;;;;;6.93;4.10;;;;;;;19.66;74.85;100386.50;4988102;28;20260;-77
2023/07/12 00:15:49;;;;;;;9.60;4.25;;;;;;;19.67;75.17;100400.88;5005187;28;20045;-78
2023/07/12 00:18:21;;;;;;;5.95;4.32;;;;;;;19.66;75.45;100405.53;4990298;28;20044;-78
2023/07/12 00:20:49;;;;;;;7.28;4.10;;;;;;;19.66;75.66;100389.22;5004166;28;20042;-78
2023/07/12 00:23:15;;;;;;;9.80;4.95;;;;;;;19.61;76.18;100371.22;4986924;28;20068;-77
2023/07/12 00:25:43;;;;;;;5.63;4.10;;;;;;;19.61;75.85;100382.09;5011739;28;20467;-77
2023/07/12 00:28:23;;;;;;;9.50;4.47;;;;;;;19.64;76.79;100402.34;4987676;28;20108;-77
2023/07/12 00:30:51;;;;;;;11.07;4.88;;;;;;;19.62;77.96;100442.63;4976976;28;20065;-76
2023/07/12 00:33:19;;;;;;;9.50;4.70;;;;;;;19.63;79.19;100487.69;5010074;28;20048;-77
2023/07/12 00:35:45;;;;;;;12.93;5.07;;;;;;;19.53;80.70;100422.91;4976343;28;20053;-79
2023/07/12 00:38:18;;;;;;;10.50;5.82;;;;;;;19.49;82.06;100398.34;4990469;28;20039;-80
2023/07/12 00:40:53;;;;;;;;;;;;;;;19.48;83.95;100387.81;5011467;28;20038;-80
2023/07/12 00:43:44;;;;;;;8.73;4.82;;;;;;;19.38;82.62;100393.69;5010495;28;19917;-83
2023/07/12 00:46:31;;;;;;;11.27;6.57;;;;;;;19.31;84.16;100384.19;5001577;28;20416;-79
2023/07/12 00:48:57;;;;;;;14.85;6.28;;;;;;;19.27;83.94;100394.13;4970767;28;20042;-77
2023/07/12 00:51:46;;;;;;;11.50;6.65;;;;;;;19.25;85.75;100430.88;5006159;28;20046;-79
2023/07/12 00:54:15;;;;;;;10.82;7.57;;;;;;;19.18;86.37;100434.16;5004132;28;20038;-80
2023/07/12 00:56:42;;;;;;;8.85;6.85;;;;;;;19.12;86.22;100446.34;4975504;28;20496;-78
2023/07/12 00:59:14;;;;;;;13.38;7.35;;;;;;;19.11;87.27;100471.91;4976875;28;20041;-80
2023/07/12 01:01:41;;;;;;;12.35;7.03;;;;;;;19.08;86.87;100495.06;5008055;28;20057;-79
2023/07/12 01:04:11;;;;;;;13.15;7.45;;;;;;;19.10;87.43;100519.13;4997207;28;20061;-80
2023/07/12 01:06:38;;;;;;;13.27;7.28;;;;;;;19.10;87.37;100578.84;5010363;28;20041;-78
2023/07/12 01:09:13;;;;;;;13.98;6.40;;;;;;;18.99;86.61;100477.25;4993512;28;20041;-80
2023/07/12 01:11:40;;;;;;;11.85;6.88;;;;;;;18.95;86.44;100436.41;5005643;28;20148;-81
2023/07/12 01:14:12;;;;;;;15.15;6.97;;;;;;;18.84;88.29;100404.63;4992155;28;20084;-81
2023/07/12 01:16:40;;;;;;;10.15;6.32;;;;;;;18.71;88.08;100382.88;4956230;28;20049;-79
2023/07/12 01:19:06;;;;;;;9.05;5.93;;;;;;;18.73;87.74;100379.81;5008124;28;20041;-82
2023/07/12 01:21:33;;;;;;;10.15;6.05;;;;;;;18.66;87.60;100374.09;4993197;28;20113;-80
2023/07/12 01:24:00;;;;;;;10.30;5.25;;;;;;;18.67;86.60;100364.88;5006306;28;20033;-80
2023/07/12 01:26:38;;;;;;;10.30;5.90;;;;;;;18.67;87.60;100365.66;5010246;28;20920;-79
2023/07/12 01:29:11;;;;;;;12.52;5.75;;;;;;;18.61;87.61;100364.25;4994787;28;20029;-77
2023/07/12 01:31:38;;;;;;;13.07;5.68;;;;;;;18.55;87.69;100350.09;5000550;28;20060;-77
2023/07/12 01:34:06;;;;;;;8.95;5.22;;;;;;;18.58;88.30;100353.28;4991093;28;20041;-81
2023/07/12 01:36:32;;;;;;;7.50;5.10;;;;;;;18.56;88.58;100372.59;4991948;28;20057;-79
2023/07/12 01:39:03;;;;;;;12.80;6.35;;;;;;;18.55;88.49;100430.66;5007173;28;20034;-80
2023/07/12 01:41:29;;;;;;;11.38;5.63;;;;;;;18.51;89.85;100514.59;5007304;28;20917;-81
2023/07/12 01:43:55;;;;;;;12.05;6.05;;;;;;;18.44;89.67;100535.22;4994470;28;20041;-78
2023/07/12 01:46:24;;;;;;;7.57;5.47;;;;;;;18.47;89.30;100494.66;4998802;28;20072;-79
2023/07/12 01:48:53;;;;;;;11.60;7.18;;;;;;;18.42;90.25;100461.53;5008482;28;20053;-78
2023/07/12 01:51:20;;;;;;;8.93;5.22;;;;;;;18.39;90.16;100459.47;4991755;28;20270;-80
2023/07/12 01:53:49;;;;;;;12.95;6.07;;;;;;;18.29;90.28;100525.72;4991985;28;20022;-80
2023/07/12 01:56:16;;;;;;;12.32;6.22;;;;;;;18.25;90.59;100514.72;4984145;28;20108;-79
2023/07/12 01:58:42;;;;;;;12.38;6.15;;;;;;;18.20;90.87;100465.31;4990718;28;20624;-80
2023/07/12 02:01:08;;;;;;;15.82;9.27;;;;;;;18.14;90.95;100482.88;5018147;23;20022;-76
2023/07/12 02:03:34;;;;;;;13.90;5.53;;;;;;;18.15;90.84;100495.31;4962305;28;20038;-77
2023/07/12 02:06:00;;;;;;;9.88;4.63;;;;;;;18.16;90.73;100481.47;4957703;28;20061;-77
2023/07/12 02:08:26;;;;;;;11.95;4.40;;;;;;;18.18;90.60;100490.06;4979120;28;20514;-74
2023/07/12 02:10:52;;;;;;;5.25;2.90;;;;;;;18.09;90.57;100504.78;4982564;28;20087;-76
2023/07/12 02:13:19;;;;;;;7.38;3.92;;;;;;;18.06;90.61;100481.81;4978476;28;20038;-76
2023/07/12 02:15:45;;;;;;;6.53;2.53;;;;;;;18.08;90.38;100474.16;4996780;28;20042;-77
2023/07/12 02:18:12;;;;;;;6.68;3.00;;;;;;;18.05;90.28;100460.47;4995337;28;20049;-77
2023/07/12 02:20:39;;;;;;;5.38;2.67;;;;;;;17.98;90.72;100458.28;4986430;28;20042;-77
2023/07/12 02:23:06;;;;;;;4.20;2.40;;;;;;;17.97;90.74;100465.59;4982219;28;20110;-76
2023/07/12 02:25:36;;;;;;;4.68;2.58;;;;;;;17.92;90.77;100478.53;4978061;28;20044;-76
2023/07/12 02:28:04;;;;;;;5.20;2.40;;;;;;;17.96;90.56;100474.06;4983883;28;20065;-76
2023/07/12 02:30:31;;;;;;;4.72;2.65;;;;;;;17.97;90.86;100500.81;4994904;28;20128;-77
2023/07/12 02:32:57;;;;;;;3.65;2.30;;;;;;;17.95;90.65;100543.72;4984307;28;20045;-76
2023/07/12 02:35:29;;;;;;;4.68;2.72;;;;;;;18.01;91.53;100565.97;4979761;28;20038;-76
2023/07/12 02:37:59;;;;;;;4.65;2.38;;;;;;;18.03;90.78;100539.38;4967604;28;20079;-77
2023/07/12 02:40:27;;;;;;;4.32;3.10;;;;;;;17.94;90.83;100474.38;4994540;28;20042;-76
2023/07/12 02:42:56;;;;;;;5.05;3.10;;;;;;;17.93;91.35;100466.56;4992810;28;20033;-77
2023/07/12 02:45:22;;;;;;;7.72;3.60;;;;;;;17.95;91.10;100475.97;4963948;28;20116;-75
2023/07/12 02:47:50;;;;;;;4.38;2.30;;;;;;;17.94;91.04;100474.38;4986076;28;20494;-75
2023/07/12 02:50:15;;;;;;;6.97;2.88;;;;;;;17.93;90.80;100509.91;5000676;28;20117;-75
2023/07/12 02:56:28;;;;;;;5.43;2.70;;;;;;;17.98;90.53;100572.06;4998960;28;20080;-77
2023/07/12 02:58:54;;;;;;;3.45;1.95;;;;;;;18.00;90.95;100580.66;4997154;28;20112;-76
2023/07/12 03:01:20;;;;;;;;;;;;;;;18.01;90.98;100571.41;5016230;28;20115;-76
2023/07/12 03:03:45;;;;;;;5.38;2.35;;;;;;;18.00;90.47;100564.41;5002763;28;20398;-78
2023/07/12 03:06:12;;;;;;;3.40;2.33;;;;;;;18.03;90.10;100542.09;5003720;28;20116;-77
2023/07/12 03:08:38;;;;;;;4.15;2.00;;;;;;;18.06;89.91;100513.53;4985319;28;20061;-77
2023/07/12 03:11:05;;;;;;;;;;;;;;;18.07;90.13;100505.06;4968938;28;20532;-75
2023/07/12 03:13:31;;;;;;;4.68;2.25;;;;;;;18.04;89.84;100492.19;4973792;28;19928;-77
2023/07/12 03:15:58;;;;;;;;;;;;;;;18.00;90.43;100474.97;5003783;28;20030;-76
2023/07/12 03:18:24;;;;;;;7.70;2.45;;;;;;;17.93;90.38;100437.56;4991059;28;19921;-79
2023/07/12 03:20:50;;;;;;;6.45;2.33;;;;;;;17.91;90.50;100426.25;4987053;28;20046;-77
2023/07/12 03:23:17;;;;;;;3.13;2.15;;;;;;;17.90;90.54;100418.47;4999226;28;20038;-75
2023/07/12 03:25:47;;;;;;;4.32;2.22;;;;;;;17.92;90.91;100408.09;5001077;28;20029;-79
2023/07/12 03:28:12;;;;;;;8.43;3.20;;;;;;;17.88;90.89;100399.03;5005662;28;20030;-77
2023/07/12 03:30:38;;;;;;;7.63;2.70;;;;;;;17.85;91.24;100386.16;5002724;28;20478;-78
2023/07/12 03:33:04;;;;;;;6.97;2.85;;;;;;;17.85;91.01;100389.66;5000440;28;20026;-74
2023/07/12 03:35:29;;;;;;;6.75;2.83;;;;;;;17.84;91.61;100365.59;4988559;28;20037;-74
2023/07/12 03:37:55;;;;;;;4.55;2.10;;;;;;;17.81;91.47;100360.81;4998842;28;20026;-75
2023/07/12 03:40:21;;;;;;;6.28;3.42;;;;;;;17.80;91.23;100354.59;5009515;28;20052;-77
2023/07/12 03:42:47;;;;;;;4.47;2.60;;;;;;;17.79;91.29;100349.53;4990363;28;20042;-75
2023/07/12 03:45:12;;;;;;;5.38;2.88;;;;;;;17.77;91.26;100359.91;5007502;28;20069;-76
2023/07/12 03:47:38;;;;;;;5.20;2.35;;;;;;;17.78;91.08;100394.78;4983614;28;20038;-77
2023/07/12 03:50:05;;;;;;;3.70;2.30;;;;;;;17.82;91.13;100397.66;4989757;28;20034;-75
2023/07/12 03:52:31;;;;;;;4.25;2.92;;;;;;;17.86;91.52;100398.56;4988004;28;20042;-76
2023/07/12 03:54:59;;;;;;;5.18;2.58;;;;;;;17.87;91.11;100397.44;5007991;28;20512;-75
2023/07/12 03:57:25;;;;;;;5.50;3.08;;;;;;;17.88;91.48;100412.56;4999939;28;20148;-78
2023/07/12 03:59:51;;;;;;;7.47;3.20;;;;;;;17.92;91.84;100424.34;4987212;28;20045;-75
2023/07/12 04:02:16;;;;;;;3.90;2.10;;;;;;;17.92;91.02;100416.22;5003836;28;20041;-77
2023/07/12 04:04:42;;;;;;;3.42;2.20;;;;;;;17.94;91.00;100432.94;4998514;28;20406;-76
2023/07/12 04:07:08;;;;;;;3.80;2.15;;;;;;;17.97;90.66;100426.88;4985880;28;20089;-75
2023/07/12 04:09:33;;;;;;;;;;;;;;;17.99;90.74;100438.19;5001469;28;20026;-76
2023/07/12 04:11:59;;;;;;;4.50;2.40;;;;;;;17.97;90.91;100449.34;4970995;28;19927;-76
2023/07/12 04:14:24;;;;;;;5.28;3.80;;;;;;;17.98;91.67;100447.44;4987378;28;20105;-76
2023/07/12 04:16:50;;;;;;;;;;;;;;;17.99;91.56;100462.56;5004454;28;20162;-76
2023/07/12 04:19:16;;;;;;;5.03;2.47;;;;;;;17.96;91.05;100482.19;5001049;28;19968;-75
2023/07/12 04:21:42;;;;;;;;;;;;;;;17.98;91.85;100490.78;4992412;28;20124;-75
2023/07/12 04:24:07;;;;;;;4.47;2.38;;;;;;;17.94;90.66;100487.91;5004461;28;19954;-77
2023/07/12 04:26:33;;;;;;;4.10;2.88;;;;;;;17.94;90.87;100489.81;4999827;28;20046;-80
2023/07/12 04:28:58;;;;;;;;;;;;;;;17.94;91.27;100500.66;4970778;28;20045;-76
2023/07/12 04:31:24;;;;;;;6.65;2.45;;;;;;;17.91;91.17;100506.75;4980535;28;19920;-76
2023/07/12 04:33:51;;;;;;;;;;;;;;;17.95;92.71;100524.75;5006061;28;20038;-78
2023/07/12 04:36:17;;;;;;;5.80;2.50;;;;;;;17.92;92.10;100530.00;5004475;28;19928;-78
2023/07/12 04:38:43;;;;;;;4.30;2.40;;;;;;;17.91;92.35;100545.47;5003849;28;20120;-76
2023/07/12 04:41:09;;;;;;;;;;;;;;;17.98;92.64;100550.38;4988418;28;20113;-77
2023/07/12 04:43:35;;;;;;;4.53;2.90;;;;;;;17.94;92.52;100552.16;4987250;28;20365;-76
2023/07/12 04:46:01;;;;;;;6.88;2.95;;;;;;;17.93;92.77;100550.56;5002809;28;20042;-78
2023/07/12 04:48:27;;;;;;;8.27;3.13;;;;;;;17.94;92.90;100560.28;5019432;28;20052;-76
2023/07/12 04:50:54;;;;;;;;;;;;;;;17.97;93.26;100554.22;5004895;28;20041;-78
2023/07/12 04:53:21;;;;;;;7.97;2.10;;;;;;;17.96;92.40;100547.22;5009498;28;19917;-76
2023/07/12 04:55:50;;;;;;;6.00;2.35;;;;;;;18.00;92.55;100548.13;5000739;28;20030;-76
2023/07/12 04:58:16;;;;;;;5.22;2.63;;;;;;;18.03;93.41;100558.34;5003216;28;20117;-76
2023/07/12 05:00:43;;;;;;;6.05;2.50;;;;;;;18.06;93.40;100554.19;5017455;28;20037;-78
2023/07/12 05:03:08;;;;;;;4.55;2.67;;;;;;;18.09;92.74;100543.50;5003336;28;20436;-77
2023/07/12 05:05:37;;;;;;;;;;;;;;;18.13;92.96;100528.16;4970372;28;20073;-76
2023/07/12 05:08:02;;;;;;;5.57;2.80;;;;;;;18.13;93.01;100514.63;4996644;28;20317;-77
2023/07/12 05:10:28;;;;;;;;;;;;;;;18.19;93.39;100518.75;5004565;28;20034;-76
2023/07/12 05:12:53;;;;;;;4.13;2.67;;;;;;;18.15;92.65;100539.47;5009447;28;19925;-75
2023/07/12 05:15:20;;;;;;;3.78;2.80;;;;;;;18.19;93.18;100550.47;5002937;28;20034;-76
2023/07/12 05:17:45;;;;;;;7.13;2.95;;;;;;;18.21;93.26;100553.66;4991606;28;20093;-75
2023/07/12 05:20:12;;;;;;;3.88;2.72;;;;;;;18.26;93.06;100551.56;4979978;28;20443;-75
2023/07/12 05:22:38;;;;;;;7.22;3.28;;;;;;;18.28;93.77;100565.56;5002932;28;20124;-75
2023/07/12 05:25:04;;;;;;;6.38;3.50;;;;;;;18.30;94.37;100586.94;4982320;28;20049;-76
2023/07/12 05:27:30;;;;;;;4.78;2.90;;;;;;;18.29;93.77;100588.06;5002870;28;20048;-75
2023/07/12 05:29:58;;;;;;;5.20;2.78;;;;;;;18.31;93.22;100598.59;4999159;28;20034;-75
2023/07/12 05:32:23;;;;;;;5.30;2.78;;;;;;;18.32;93.01;100609.09;4968958;28;20136;-76
2023/07/12 05:34:49;;;;;;;;;;;;;;;18.30;92.62;100624.09;4978958;28;20121;-78
2023/07/12 05:37:16;;;;;;;5.00;2.42;;;;;;;18.25;92.47;100630.50;5004089;28;19917;-80
2023/07/12 05:39:42;;;;;;;6.82;3.20;;;;;;;18.26;93.16;100627.44;4993296;28;20071;-80
2023/07/12 05:42:08;;;;;;;;;;;;;;;18.29;93.24;100642.28;5003904;28;20026;-75
2023/07/12 05:44:35;;;;;;;3.83;2.95;;;;;;;18.23;92.43;100632.75;4984039;28;19921;-77
2023/07/12 05:47:01;;;;;;;5.57;2.50;;;;;;;18.26;93.03;100634.78;4967058;28;20038;-77
2023/07/12 05:49:27;;;;;;;4.35;2.53;;;;;;;18.24;93.01;100637.81;4988812;28;20037;-76
2023/07/12 05:51:53;;;;;;;3.40;2.70;;;;;;;18.24;93.13;100643.25;4987099;28;20033;-77
2023/07/12 05:54:18;;;;;;;;;;;;;;;18.27;93.49;100645.31;4989045;28;20040;-76
2023/07/12 05:56:44;;;;;;;3.83;2.92;;;;;;;18.24;93.38;100635.13;4966079;28;19917;-76
2023/07/12 05:59:10;;;;;;;9.27;2.78;;;;;;;18.26;93.55;100627.44;5000351;28;20068;-77
2023/07/12 06:01:36;;;;;;;5.38;2.80;;;;;;;18.26;93.26;100616.59;4998664;28;20042;-77
2023/07/12 06:04:02;;;;;;;5.28;3.20;;;;;;;18.32;93.34;100621.84;5002921;28;20113;-74
2023/07/12 06:06:28;;;;;;;6.25;2.38;;;;;;;18.34;93.45;100620.41;4976745;28;20125;-76
2023/07/12 06:08:53;;;;;;;4.07;2.63;;;;;;;18.35;93.32;100611.16;4970596;28;20049;-78
2023/07/12 06:11:19;;;;;;;6.10;3.08;;;;;;;18.40;93.85;100580.34;4986671;28;20038;-75
2023/07/12 06:13:45;;;;;;;5.45;3.72;;;;;;;18.44;93.31;100589.44;4982296;28;20045;-75
2023/07/12 06:16:10;;;;;;;3.92;3.47;;;;;;;18.53;93.61;100609.16;4969373;28;20042;-76
2023/07/12 06:18:36;;;;;;;5.80;4.18;;;;;;;18.66;93.93;100619.03;4999002;28;20056;-75
2023/07/12 06:21:06;;;;;;;5.47;3.92;;;;;;;18.75;93.41;100630.63;4982394;28;20044;-74
2023/07/12 06:23:32;;;;;;;9.07;4.80;;;;;;;18.76;93.97;100634.13;5002036;28;20076;-75
2023/07/12 06:25:59;;;;;;;7.95;4.53;;;;;;;18.72;93.53;100639.44;4974571;28;20402;-75
2023/07/12 06:28:25;;;;;;;5.93;4.43;;;;;;;18.65;92.60;100636.41;5026568;28;20390;-75
2023/07/12 06:30:51;;;;;;;6.63;4.25;;;;;;;18.62;91.65;100639.75;4984925;28;20040;-75
2023/07/12 06:33:17;;;;;;;5.97;4.57;;;;;;;18.61;91.95;100640.88;5003941;28;20037;-76
2023/07/12 06:35:42;;;;;;;5.00;4.50;;;;;;;18.61;91.76;100637.38;4991151;28;20030;-76
2023/07/12 06:38:09;;;;;;;6.78;4.50;;;;;;;18.62;92.35;100626.19;5004393;28;20046;-75
2023/07/12 06:40:34;;;;;;;6.10;4.72;;;;;;;18.67;91.99;100620.63;5003513;28;20072;-75
2023/07/12 06:43:00;;;;;;;5.80;3.75;;;;;;;18.77;91.18;100617.56;5006329;28;20510;-76
2023/07/12 06:45:26;;;;;;;5.10;4.25;;;;;;;18.85;92.46;100601.56;4993796;28;20416;-76
2023/07/12 06:47:52;;;;;;;5.55;3.88;;;;;;;18.97;90.16;100596.22;5004806;28;20137;-76
2023/07/12 06:50:17;;;;;;;5.75;4.00;;;;;;;19.13;89.20;100594.50;4988008;28;20612;-74
2023/07/12 06:52:43;;;;;;;6.10;4.55;;;;;;;19.33;89.81;100604.56;4985392;28;20073;-76
2023/07/12 06:55:09;;;;;;;7.35;4.07;;;;;;;19.60;91.97;100605.97;4989748;28;20052;-75
2023/07/12 06:57:35;;;;;;;6.20;4.28;;;;;;;19.76;90.02;100600.69;5005418;28;20038;-75
2023/07/12 07:00:05;;;;;;;4.30;3.03;;;;;;;19.89;87.50;100605.03;5006639;28;20038;-77
2023/07/12 07:02:31;;;;;;;4.97;3.00;;;;;;;19.90;86.29;100587.59;4946977;28;1615101;-74
2023/07/12 07:04:57;;;;;;;3.92;2.85;;;;;;;20.04;86.40;100616.41;5005719;28;20041;-76
2023/07/12 07:07:23;;;;;;;4.93;3.50;;;;;;;20.15;87.01;100612.91;5007075;28;20100;-76
2023/07/12 07:09:48;;;;;;;6.18;3.80;;;;;;;20.22;87.04;100634.13;5003762;28;20486;-76
2023/07/12 07:12:15;;;;;;;4.85;3.00;;;;;;;20.15;85.82;100650.97;4989004;28;20092;-77
2023/07/12 07:14:41;;;;;;;5.57;3.83;;;;;;;20.12;85.98;100667.19;5001752;28;20179;-76
2023/07/12 07:17:08;;;;;;;5.60;3.47;;;;;;;20.16;86.66;100668.09;5004948;28;20030;-75
2023/07/12 07:19:34;;;;;;;5.72;3.50;;;;;;;20.00;83.85;100662.50;5003091;28;20649;-79
2023/07/12 07:22:00;;;;;;;4.75;3.65;;;;;;;20.01;84.74;100655.94;4986762;28;20030;-74
2023/07/12 07:24:26;;;;;;;4.07;3.33;;;;;;;20.07;84.07;100649.16;4990356;28;20064;-79
2023/07/12 07:26:51;;;;;;;8.52;4.03;;;;;;;20.21;86.10;100659.72;5016358;28;20044;-77
2023/07/12 07:29:17;;;;;;;5.35;3.85;;;;;;;20.37;85.27;100671.53;4979259;28;20073;-75
2023/07/12 07:31:43;;;;;;;5.47;4.53;;;;;;;20.31;85.79;100681.03;4986214;28;20038;-76
2023/07/12 07:34:09;;;;;;;5.70;4.32;;;;;;;20.23;86.09;100687.38;4988753;28;20041;-76
2023/07/12 07:36:35;;;;;;;7.65;4.88;;;;;;;20.20;85.72;100701.66;4991408;28;20087;-77
2023/07/12 07:39:01;;;;;;;6.63;3.33;;;;;;;19.96;83.34;100698.81;4991086;28;20561;-75
2023/07/12 07:41:27;;;;;;;4.55;3.40;;;;;;;19.93;82.92;100689.44;5000969;28;20045;-76
2023/07/12 07:43:53;;;;;;;5.47;2.80;;;;;;;19.85;80.78;100695.75;4984821;28;20049;-75
2023/07/12 07:46:19;;;;;;;6.90;2.72;;;;;;;19.72;80.44;100692.16;4987010;28;20030;-80
2023/07/12 07:48:45;;;;;;;3.65;2.40;;;;;;;19.66;80.81;100709.78;4995869;28;20076;-80
2023/07/12 07:51:12;;;;;;;4.15;2.25;;;;;;;19.51;79.49;100707.63;5006903;28;20048;-76
2023/07/12 07:53:38;;;;;;;3.92;2.42;;;;;;;19.43;81.70;100703.03;5008535;28;20053;-79
2023/07/12 07:56:03;;;;;;;5.35;2.67;;;;;;;19.57;82.91;100706.28;4993554;28;20030;-79
2023/07/12 07:58:29;;;;;;;5.45;2.45;;;;;;;19.74;82.63;100708.91;4988306;28;20038;-77
2023/07/12 08:00:56;;;;;;;4.95;3.83;;;;;;;19.92;83.38;100709.59;4998382;23;20103;-82
2023/07/12 08:03:30;;;;;;;6.60;3.28;;;;;;;19.96;82.67;100699.63;4986431;28;20372;-80
2023/07/12 08:06:01;;;;;;;4.07;3.00;;;;;;;20.07;78.96;100708.16;5005843;28;20510;-76
2023/07/12 08:08:28;;;;;;;5.00;2.70;;;;;;;20.22;79.91;100710.25;5023646;28;20052;-82
2023/07/12 08:10:54;;;;;;;4.90;2.88;;;;;;;20.30;77.82;100703.94;5009022;28;20519;-80
2023/07/12 08:13:20;;;;;;;5.43;2.75;;;;;;;20.37;79.92;100698.72;5009778;28;20044;-78
2023/07/12 08:15:49;;;;;;;6.35;3.10;;;;;;;20.43;82.62;100705.53;5007523;28;20056;-78
2023/07/12 08:18:14;;;;;;;5.78;2.60;;;;;;;20.53;79.13;100714.47;5025154;28;20029;-79
2023/07/12 08:20:40;;;;;;;6.78;2.97;;;;;;;20.56;76.22;100720.00;5008304;28;20091;-80
2023/07/12 08:23:08;;;;;;;5.47;2.30;;;;;;;20.73;78.57;100721.75;4992450;28;20049;-81
2023/07/12 08:25:34;;;;;;;3.80;2.45;;;;;;;20.89;77.17;100722.66;5010492;28;20037;-79
2023/07/12 08:28:00;;;;;;;9.43;2.78;;;;;;;20.96;77.48;100739.22;5007567;28;20042;-82
2023/07/12 08:30:26;;;;;;;4.85;2.58;;;;;;;20.99;75.98;100727.63;5006436;28;20041;-77
2023/07/12 08:32:51;;;;;;;6.78;3.28;;;;;;;20.86;73.58;100736.97;4995434;28;20537;-78
2023/07/12 08:35:17;;;;;;;6.13;2.60;;;;;;;20.76;77.99;100734.66;5021671;28;20041;-78
2023/07/12 08:37:43;;;;;;;6.65;3.20;;;;;;;20.74;79.37;100742.38;5008071;28;20132;-78
2023/07/12 08:40:13;;;;;;;8.27;3.47;;;;;;;20.70;79.14;100746.91;5023721;28;20163;-80
2023/07/12 08:42:41;;;;;;;5.63;3.42;;;;;;;20.79;80.15;100750.31;4994474;28;20698;-78
2023/07/12 08:45:25;;;;;;;4.13;3.00;;;;;;;20.81;76.38;100760.88;5021605;28;20033;-80
2023/07/12 08:47:57;;;;;;;4.07;2.97;;;;;;;20.81;77.15;100764.38;5024033;28;20033;-79
2023/07/12 08:50:23;;;;;;;7.22;3.67;;;;;;;20.82;79.08;100757.81;5007754;28;20038;-79
2023/07/12 08:52:49;;;;;;;5.32;3.60;;;;;;;20.74;79.57;100764.16;5008621;28;20072;-81
2023/07/12 08:55:19;;;;;;;7.38;3.20;;;;;;;20.74;77.92;100764.16;5005295;28;20068;-79
2023/07/12 08:57:53;;;;;;;8.00;3.42;;;;;;;20.74;76.00;100758.72;5024183;28;20129;-77
2023/07/12 09:00:22;;;;;;;6.45;3.40;;;;;;;20.81;77.19;100772.56;5023037;28;20233;-79
2023/07/12 09:02:48;;;;;;;7.07;3.22;;;;;;;20.71;79.32;100759.38;5006127;28;20091;-80
2023/07/12 09:05:19;;;;;;;7.70;2.75;;;;;;;20.79;78.98;100765.84;5021835;28;20553;-78
2023/07/12 09:08:04;;;;;;;4.97;2.92;;;;;;;20.72;75.60;100767.19;5020639;28;20041;-79
2023/07/12 09:10:45;;;;;;;7.13;3.03;;;;;;;20.75;75.69;100771.19;5016666;28;20490;-77
2023/07/12 09:13:13;;;;;;;7.40;3.33;;;;;;;20.70;77.31;100764.00;5035074;28;20473;-79
2023/07/12 09:15:49;;;;;;;11.27;3.78;;;;;;;20.65;77.72;100761.50;5024634;28;20429;-77
2023/07/12 09:18:36;;;;;;;6.07;3.22;;;;;;;20.87;79.65;100760.31;5003555;28;20033;-78
2023/07/12 09:21:25;;;;;;;6.72;2.63;;;;;;;21.18;75.13;100767.13;5004743;28;20036;-79
2023/07/12 09:23:53;;;;;;;5.60;3.75;;;;;;;21.17;72.59;100765.53;5020488;28;20458;-78
2023/07/12 09:26:31;;;;;;;7.45;2.83;;;;;;;21.25;74.38;100768.16;5024742;28;20033;-82
2023/07/12 09:28:58;;;;;;;8.23;3.55;;;;;;;21.41;73.39;100765.59;5007710;28;20033;-78
2023/07/12 09:31:31;;;;;;;6.75;3.08;;;;;;;21.47;74.03;100766.94;5024571;28;20068;-79
2023/07/12 09:34:03;;;;;;;7.00;3.13;;;;;;;21.64;70.21;100765.09;5007241;28;20045;-78
2023/07/12 09:36:29;;;;;;;5.40;2.70;;;;;;;21.90;69.05;100768.22;5024286;28;20061;-78
2023/07/12 09:39:05;;;;;;;5.78;3.30;;;;;;;22.16;69.94;100772.47;5023593;28;20071;-79
2023/07/12 09:41:31;;;;;;;5.32;3.00;;;;;;;22.28;67.58;100775.13;5006756;28;20029;-77
2023/07/12 09:44:00;;;;;;;5.43;2.90;;;;;;;22.30;67.60;100779.13;5023538;28;20692;-80
2023/07/12 09:46:45;;;;;;;7.80;2.30;;;;;;;22.34;66.14;100773.75;5024763;28;20071;-79
2023/07/12 09:49:19;;;;;;;5.13;2.72;;;;;;;22.39;67.29;100765.31;5021061;28;20095;-80
2023/07/12 09:51:50;;;;;;;5.47;2.75;;;;;;;22.61;66.45;100766.66;5008235;28;20087;-80
2023/07/12 09:54:24;;;;;;;5.10;2.95;;;;;;;22.78;65.01;100760.09;5024688;28;20151;-80
2023/07/12 09:57:02;;;;;;;6.35;3.13;;;;;;;22.96;68.17;100766.81;5023521;28;20048;-78
2023/07/12 09:59:39;;;;;;;5.82;2.53;;;;;;;22.94;66.37;100763.66;5020768;28;20039;-80
2023/07/12 10:02:19;;;;;;;5.85;2.33;;;;;;;22.98;64.54;100770.00;5027549;28;20041;-79
2023/07/12 10:04:51;;;;;;;5.60;2.63;;;;;;;23.08;65.11;100774.91;5014346;28;20034;-79
2023/07/12 10:07:52;;;;;;;6.00;2.88;;;;;;;22.86;64.34;100770.88;5025482;28;20034;-82
2023/07/12 10:10:39;;;;;;;6.32;3.13;;;;;;;22.73;68.39;100779.47;5026434;28;20068;-82
2023/07/12 10:13:22;;;;;;;;;;;;;;;22.71;68.24;100770.84;5032488;28;20044;-81
2023/07/12 10:15:49;;;;;;;7.00;3.45;;;;;;;22.76;68.23;100773.28;5033059;28;19917;-81
2023/07/12 10:18:23;;;;;;;8.18;2.63;;;;;;;22.70;67.98;100772.00;5032630;28;20026;-79
2023/07/12 10:20:49;;;;;;;7.30;3.03;;;;;;;22.64;70.60;100771.44;5028042;28;20040;-81
2023/07/12 10:23:16;;;;;;;6.80;2.53;;;;;;;22.72;67.31;100767.75;5014147;28;20120;-80
2023/07/12 10:25:46;;;;;;;7.53;2.75;;;;;;;22.92;64.48;100779.59;5014845;28;20055;-81
2023/07/12 10:28:12;;;;;;;5.35;2.70;;;;;;;23.06;64.23;100771.75;5029887;28;20112;-79
2023/07/12 10:30:40;;;;;;;6.70;2.55;;;;;;;23.24;63.89;100768.66;5033398;28;20045;-81
2023/07/12 10:33:19;;;;;;;6.75;2.45;;;;;;;23.23;60.80;100770.59;5014406;28;20025;-80
2023/07/12 10:35:50;;;;;;;5.28;2.60;;;;;;;23.22;60.69;100774.47;5014655;28;20052;-81
2023/07/12 10:38:18;;;;;;;7.00;2.40;;;;;;;23.34;61.33;100766.16;5015378;28;20037;-81
2023/07/12 10:40:47;;;;;;;4.40;2.53;;;;;;;23.41;62.68;100771.00;5026436;28;20513;-76
2023/07/12 10:43:21;;;;;;;5.80;2.83;;;;;;;23.34;59.21;100782.56;5029070;28;20414;-81
2023/07/12 10:45:50;;;;;;;7.00;2.92;;;;;;;23.22;62.25;100790.84;5012758;28;20385;-79
2023/07/12 10:48:22;;;;;;;7.45;2.97;;;;;;;23.16;65.22;100793.06;5000782;28;20033;-82
2023/07/12 10:51:11;;;;;;;6.53;2.88;;;;;;;23.00;65.76;100784.09;5032126;28;20036;-82
2023/07/12 10:54:03;;;;;;;5.70;2.88;;;;;;;23.04;64.09;100784.97;5016712;28;20025;-81
2023/07/12 10:56:52;;;;;;;6.85;3.15;;;;;;;22.82;65.53;100793.72;5012907;28;20639;-78
2023/07/12 10:59:32;;;;;;;4.63;2.20;;;;;;;23.15;62.59;100796.94;5011747;28;20087;-78
2023/07/12 11:02:04;;;;;;;5.45;2.55;;;;;;;23.47;61.48;100791.44;4997650;28;20037;-82
2023/07/12 11:04:30;;;;;;;5.93;2.25;;;;;;;23.64;57.89;100796.56;5027893;28;20041;-81
2023/07/12 11:07:07;;;;;;;6.30;2.92;;;;;;;23.76;58.78;100803.84;5027390;28;20208;-81
2023/07/12 11:09:49;;;;;;;4.82;2.38;;;;;;;23.85;60.05;100801.72;5032323;28;20078;-81
2023/07/12 11:12:29;;;;;;;4.70;2.35;;;;;;;23.86;60.92;100797.81;4996522;28;20086;-80
2023/07/12 11:15:06;;;;;;;5.18;2.80;;;;;;;23.76;59.87;100800.31;5029644;28;20042;-81
2023/07/12 11:18:07;;;;;;;5.00;2.30;;;;;;;23.50;62.32;100812.59;5028534;28;20064;-81
2023/07/12 11:20:54;;;;;;;7.35;2.28;;;;;;;23.63;62.93;100800.44;5011011;28;20160;-80
2023/07/12 11:23:33;;;;;;;5.05;2.00;;;;;;;23.82;59.26;100807.88;5015410;28;20091;-82
2023/07/12 11:26:18;;;;;;;7.53;2.30;;;;;;;24.03;60.43;100809.50;5030348;28;20041;-81
2023/07/12 11:28:44;;;;;;;8.95;2.97;;;;;;;24.22;59.05;100815.75;4996220;28;20135;-81
2023/07/12 11:31:15;;;;;;;5.25;2.30;;;;;;;24.18;58.97;100806.72;5028291;28;20101;-82
2023/07/12 11:34:00;;;;;;;7.47;3.00;;;;;;;24.15;59.26;100812.88;5029378;28;20057;-82
2023/07/12 11:36:31;;;;;;;7.45;2.72;;;;;;;23.97;55.58;100814.44;5024791;28;20505;-80
2023/07/12 11:38:59;;;;;;;5.82;2.20;;;;;;;23.68;57.19;100799.38;5027555;28;20057;-80
2023/07/12 11:41:28;;;;;;;7.60;2.88;;;;;;;23.49;60.27;100815.69;5035570;28;20036;-81